sensor_id;sensor_type;location;lat;lon;timestamp;P1;P2;P0
46681;PMS5003;34101;53.430;-2.224;2022-08-01T00:01:55;6;6;
46681;PMS5003;34101;53.430;-2.224;2022-08-01T00:04:23;5;5;
46681;PMS5003;34101;53.430;-2.224;2022-08-01T00:06:50;6;6;
46681;PMS5003;34101;53.430;-2.224;2022-08-01T00:09:18;5;5;
46681;PMS5003;34101;53.430;-2.224;2022-08-01T00:11:45;6;6;
46681;PMS5003;34101;53.430;-2.224;2022-08-01T00:14:14;5;5;
46681;PMS5003;34101;53.430;-2.224;2022-08-01T00:16:41;4;4;
46681;PMS5003;34101;53.430;-2.224;2022-08-01T00:19:09;7;6;
46681;PMS5003;34101;53.430;-2.224;2022-08-01T00:21:36;5;4;
46681;PMS5003;34101;53.430;-2.224;2022-08-01T00:24:03;6;6;
46681;PMS5003;34101;53.430;-2.224;2022-08-01T00:26:31;6;5;
46681;PMS5003;34101;53.430;-2.224;2022-08-01T00:28:58;6;5;
46681;PMS5003;34101;53.430;-2.224;2022-08-01T00:31:25;6;6;
46681;PMS5003;34101;53.430;-2.224;2022-08-01T00:33:53;6;4;
46681;PMS5003;34101;53.430;-2.224;2022-08-01T00:36:20;5;5;
46681;PMS5003;34101;53.430;-2.224;2022-08-01T00:38:49;6;6;
46681;PMS5003;34101;53.430;-2.224;2022-08-01T00:41:16;4;4;
46681;PMS5003;34101;53.430;-2.224;2022-08-01T00:43:49;7;6;
46681;PMS5003;34101;53.430;-2.224;2022-08-01T00:46:16;4;4;
46681;PMS5003;34101;53.430;-2.224;2022-08-01T00:48:44;8;5;
46681;PMS5003;34101;53.430;-2.224;2022-08-01T00:51:11;6;6;
46681;PMS5003;34101;53.430;-2.224;2022-08-01T00:53:39;5;5;
46681;PMS5003;34101;53.430;-2.224;2022-08-01T00:56:07;6;6;
46681;PMS5003;34101;53.430;-2.224;2022-08-01T00:58:34;5;5;
46681;PMS5003;34101;53.430;-2.224;2022-08-01T01:01:02;7;6;
46681;PMS5003;34101;53.430;-2.224;2022-08-01T01:03:29;8;7;
46681;PMS5003;34101;53.430;-2.224;2022-08-01T01:06:01;6;6;
46681;PMS5003;34101;53.430;-2.224;2022-08-01T01:08:38;7;7;
46681;PMS5003;34101;53.430;-2.224;2022-08-01T01:11:10;6;4;
46681;PMS5003;34101;53.430;-2.224;2022-08-01T01:13:43;11;5;
46681;PMS5003;34101;53.430;-2.224;2022-08-01T01:16:17;6;5;
46681;PMS5003;34101;53.430;-2.224;2022-08-01T01:18:46;6;6;
46681;PMS5003;34101;53.430;-2.224;2022-08-01T01:21:27;5;5;
46681;PMS5003;34101;53.430;-2.224;2022-08-01T01:24:17;5;5;
46681;PMS5003;34101;53.430;-2.224;2022-08-01T01:26:57;7;4;
46681;PMS5003;34101;53.430;-2.224;2022-08-01T01:29:34;5;5;
46681;PMS5003;34101;53.430;-2.224;2022-08-01T01:32:07;7;6;
46681;PMS5003;34101;53.430;-2.224;2022-08-01T01:34:40;4;4;
46681;PMS5003;34101;53.430;-2.224;2022-08-01T01:37:11;6;5;
46681;PMS5003;34101;53.430;-2.224;2022-08-01T01:39:42;9;6;
46681;PMS5003;34101;53.430;-2.224;2022-08-01T01:42:12;12;7;
46681;PMS5003;34101;53.430;-2.224;2022-08-01T01:44:47;7;6;
46681;PMS5003;34101;53.430;-2.224;2022-08-01T01:47:17;7;6;
46681;PMS5003;34101;53.430;-2.224;2022-08-01T01:49:44;10;8;
46681;PMS5003;34101;53.430;-2.224;2022-08-01T01:52:15;7;7;
46681;PMS5003;34101;53.430;-2.224;2022-08-01T01:54:48;8;4;
46681;PMS5003;34101;53.430;-2.224;2022-08-01T01:57:18;5;5;
46681;PMS5003;34101;53.430;-2.224;2022-08-01T01:59:46;6;6;
46681;PMS5003;34101;53.430;-2.224;2022-08-01T02:02:16;6;6;
46681;PMS5003;34101;53.430;-2.224;2022-08-01T02:04:45;6;6;
46681;PMS5003;34101;53.430;-2.224;2022-08-01T02:07:18;6;6;
46681;PMS5003;34101;53.430;-2.224;2022-08-01T02:09:48;7;7;
46681;PMS5003;34101;53.430;-2.224;2022-08-01T02:12:17;5;5;
46681;PMS5003;34101;53.430;-2.224;2022-08-01T02:14:47;4;4;
46681;PMS5003;34101;53.430;-2.224;2022-08-01T02:17:17;5;5;
46681;PMS5003;34101;53.430;-2.224;2022-08-01T02:19:46;4;4;
46681;PMS5003;34101;53.430;-2.224;2022-08-01T02:22:16;8;5;
46681;PMS5003;34101;53.430;-2.224;2022-08-01T02:24:49;5;5;
46681;PMS5003;34101;53.430;-2.224;2022-08-01T02:27:22;7;7;
46681;PMS5003;34101;53.430;-2.224;2022-08-01T02:29:56;6;5;
46681;PMS5003;34101;53.430;-2.224;2022-08-01T02:32:27;8;8;
46681;PMS5003;34101;53.430;-2.224;2022-08-01T02:35:01;7;7;
46681;PMS5003;34101;53.430;-2.224;2022-08-01T02:37:33;6;6;
46681;PMS5003;34101;53.430;-2.224;2022-08-01T02:40:04;6;6;
46681;PMS5003;34101;53.430;-2.224;2022-08-01T02:42:34;5;4;
46681;PMS5003;34101;53.430;-2.224;2022-08-01T02:45:02;4;4;
46681;PMS5003;34101;53.430;-2.224;2022-08-01T02:47:31;5;5;
46681;PMS5003;34101;53.430;-2.224;2022-08-01T02:50:00;5;5;
46681;PMS5003;34101;53.430;-2.224;2022-08-01T02:52:28;6;6;
46681;PMS5003;34101;53.430;-2.224;2022-08-01T02:54:57;6;6;
46681;PMS5003;34101;53.430;-2.224;2022-08-01T02:57:26;4;4;
46681;PMS5003;34101;53.430;-2.224;2022-08-01T02:59:55;6;5;
46681;PMS5003;34101;53.430;-2.224;2022-08-01T03:02:25;6;6;
46681;PMS5003;34101;53.430;-2.224;2022-08-01T03:04:55;4;4;
46681;PMS5003;34101;53.430;-2.224;2022-08-01T03:07:25;5;5;
46681;PMS5003;34101;53.430;-2.224;2022-08-01T03:09:54;6;4;
46681;PMS5003;34101;53.430;-2.224;2022-08-01T03:12:24;5;5;
46681;PMS5003;34101;53.430;-2.224;2022-08-01T03:14:56;5;5;
46681;PMS5003;34101;53.430;-2.224;2022-08-01T03:17:26;6;6;
46681;PMS5003;34101;53.430;-2.224;2022-08-01T03:19:56;4;4;
46681;PMS5003;34101;53.430;-2.224;2022-08-01T03:22:25;7;5;
46681;PMS5003;34101;53.430;-2.224;2022-08-01T03:24:56;5;4;
46681;PMS5003;34101;53.430;-2.224;2022-08-01T03:27:31;7;7;
46681;PMS5003;34101;53.430;-2.224;2022-08-01T03:30:07;7;7;
46681;PMS5003;34101;53.430;-2.224;2022-08-01T03:32:35;6;4;
46681;PMS5003;34101;53.430;-2.224;2022-08-01T03:35:03;6;5;
46681;PMS5003;34101;53.430;-2.224;2022-08-01T03:37:38;6;4;
46681;PMS5003;34101;53.430;-2.224;2022-08-01T03:40:12;9;6;
46681;PMS5003;34101;53.430;-2.224;2022-08-01T03:42:44;7;5;
46681;PMS5003;34101;53.430;-2.224;2022-08-01T03:45:15;6;6;
46681;PMS5003;34101;53.430;-2.224;2022-08-01T03:47:49;4;4;
46681;PMS5003;34101;53.430;-2.224;2022-08-01T03:50:21;6;6;
46681;PMS5003;34101;53.430;-2.224;2022-08-01T03:52:50;4;4;
46681;PMS5003;34101;53.430;-2.224;2022-08-01T03:55:20;5;5;
46681;PMS5003;34101;53.430;-2.224;2022-08-01T03:57:48;6;6;
46681;PMS5003;34101;53.430;-2.224;2022-08-01T04:00:16;5;5;
46681;PMS5003;34101;53.430;-2.224;2022-08-01T04:02:46;6;6;
46681;PMS5003;34101;53.430;-2.224;2022-08-01T04:05:15;7;6;
46681;PMS5003;34101;53.430;-2.224;2022-08-01T04:07:45;4;4;
46681;PMS5003;34101;53.430;-2.224;2022-08-01T04:10:13;7;7;
46681;PMS5003;34101;53.430;-2.224;2022-08-01T04:12:40;9;8;
46681;PMS5003;34101;53.430;-2.224;2022-08-01T04:15:08;8;6;
46681;PMS5003;34101;53.430;-2.224;2022-08-01T04:17:36;7;6;
46681;PMS5003;34101;53.430;-2.224;2022-08-01T04:20:04;6;6;
46681;PMS5003;34101;53.430;-2.224;2022-08-01T04:22:33;6;6;
46681;PMS5003;34101;53.430;-2.224;2022-08-01T04:25:01;9;6;
46681;PMS5003;34101;53.430;-2.224;2022-08-01T04:27:35;6;6;
46681;PMS5003;34101;53.430;-2.224;2022-08-01T04:30:05;7;7;
46681;PMS5003;34101;53.430;-2.224;2022-08-01T04:32:35;6;5;
46681;PMS5003;34101;53.430;-2.224;2022-08-01T04:35:07;5;5;
46681;PMS5003;34101;53.430;-2.224;2022-08-01T04:37:38;8;6;
46681;PMS5003;34101;53.430;-2.224;2022-08-01T04:40:09;10;7;
46681;PMS5003;34101;53.430;-2.224;2022-08-01T04:42:37;7;5;
46681;PMS5003;34101;53.430;-2.224;2022-08-01T04:45:06;5;5;
46681;PMS5003;34101;53.430;-2.224;2022-08-01T04:47:34;5;5;
46681;PMS5003;34101;53.430;-2.224;2022-08-01T04:50:04;8;6;
46681;PMS5003;34101;53.430;-2.224;2022-08-01T04:52:32;8;7;
46681;PMS5003;34101;53.430;-2.224;2022-08-01T04:55:00;7;6;
46681;PMS5003;34101;53.430;-2.224;2022-08-01T04:57:28;14;8;
46681;PMS5003;34101;53.430;-2.224;2022-08-01T04:59:55;8;6;
46681;PMS5003;34101;53.430;-2.224;2022-08-01T05:02:23;3;3;
46681;PMS5003;34101;53.430;-2.224;2022-08-01T05:04:50;6;5;
46681;PMS5003;34101;53.430;-2.224;2022-08-01T05:07:17;4;4;
46681;PMS5003;34101;53.430;-2.224;2022-08-01T05:09:45;7;7;
46681;PMS5003;34101;53.430;-2.224;2022-08-01T05:12:12;5;5;
46681;PMS5003;34101;53.430;-2.224;2022-08-01T05:14:40;8;6;
46681;PMS5003;34101;53.430;-2.224;2022-08-01T05:17:08;5;5;
46681;PMS5003;34101;53.430;-2.224;2022-08-01T05:19:36;6;6;
46681;PMS5003;34101;53.430;-2.224;2022-08-01T05:22:05;4;4;
46681;PMS5003;34101;53.430;-2.224;2022-08-01T05:24:34;8;8;
46681;PMS5003;34101;53.430;-2.224;2022-08-01T05:27:02;7;7;
46681;PMS5003;34101;53.430;-2.224;2022-08-01T05:29:30;7;7;
46681;PMS5003;34101;53.430;-2.224;2022-08-01T05:31:58;8;8;
46681;PMS5003;34101;53.430;-2.224;2022-08-01T05:34:25;10;10;
46681;PMS5003;34101;53.430;-2.224;2022-08-01T05:36:53;6;6;
46681;PMS5003;34101;53.430;-2.224;2022-08-01T05:39:20;6;6;
46681;PMS5003;34101;53.430;-2.224;2022-08-01T05:41:48;7;7;
46681;PMS5003;34101;53.430;-2.224;2022-08-01T05:44:16;8;6;
46681;PMS5003;34101;53.430;-2.224;2022-08-01T05:46:43;8;8;
46681;PMS5003;34101;53.430;-2.224;2022-08-01T05:49:10;6;5;
46681;PMS5003;34101;53.430;-2.224;2022-08-01T05:51:37;7;7;
46681;PMS5003;34101;53.430;-2.224;2022-08-01T05:54:05;10;6;
46681;PMS5003;34101;53.430;-2.224;2022-08-01T05:56:32;8;7;
46681;PMS5003;34101;53.430;-2.224;2022-08-01T05:59:00;7;6;
46681;PMS5003;34101;53.430;-2.224;2022-08-01T06:01:28;9;6;
46681;PMS5003;34101;53.430;-2.224;2022-08-01T06:03:56;9;6;
46681;PMS5003;34101;53.430;-2.224;2022-08-01T06:06:22;8;8;
46681;PMS5003;34101;53.430;-2.224;2022-08-01T06:08:50;7;6;
46681;PMS5003;34101;53.430;-2.224;2022-08-01T06:11:17;6;6;
46681;PMS5003;34101;53.430;-2.224;2022-08-01T06:13:44;8;6;
46681;PMS5003;34101;53.430;-2.224;2022-08-01T06:16:17;8;8;
46681;PMS5003;34101;53.430;-2.224;2022-08-01T06:18:44;9;7;
46681;PMS5003;34101;53.430;-2.224;2022-08-01T06:21:12;11;8;
46681;PMS5003;34101;53.430;-2.224;2022-08-01T06:23:40;9;7;
46681;PMS5003;34101;53.430;-2.224;2022-08-01T06:26:07;7;7;
46681;PMS5003;34101;53.430;-2.224;2022-08-01T06:28:34;9;8;
46681;PMS5003;34101;53.430;-2.224;2022-08-01T06:31:02;7;7;
46681;PMS5003;34101;53.430;-2.224;2022-08-01T06:33:29;9;9;
46681;PMS5003;34101;53.430;-2.224;2022-08-01T06:35:57;8;8;
46681;PMS5003;34101;53.430;-2.224;2022-08-01T06:38:24;9;9;
46681;PMS5003;34101;53.430;-2.224;2022-08-01T06:40:52;8;8;
46681;PMS5003;34101;53.430;-2.224;2022-08-01T06:43:19;9;8;
46681;PMS5003;34101;53.430;-2.224;2022-08-01T06:45:47;6;6;
46681;PMS5003;34101;53.430;-2.224;2022-08-01T06:48:15;7;7;
46681;PMS5003;34101;53.430;-2.224;2022-08-01T06:50:42;7;7;
46681;PMS5003;34101;53.430;-2.224;2022-08-01T06:53:10;10;9;
46681;PMS5003;34101;53.430;-2.224;2022-08-01T06:55:37;10;9;
46681;PMS5003;34101;53.430;-2.224;2022-08-01T06:58:05;9;8;
46681;PMS5003;34101;53.430;-2.224;2022-08-01T07:00:32;7;7;
46681;PMS5003;34101;53.430;-2.224;2022-08-01T07:03:00;10;10;
46681;PMS5003;34101;53.430;-2.224;2022-08-01T07:05:27;7;7;
46681;PMS5003;34101;53.430;-2.224;2022-08-01T07:07:56;6;6;
46681;PMS5003;34101;53.430;-2.224;2022-08-01T07:10:23;9;9;
46681;PMS5003;34101;53.430;-2.224;2022-08-01T07:12:50;6;6;
46681;PMS5003;34101;53.430;-2.224;2022-08-01T07:15:18;8;8;
46681;PMS5003;34101;53.430;-2.224;2022-08-01T07:17:45;8;8;
46681;PMS5003;34101;53.430;-2.224;2022-08-01T07:20:13;6;6;
46681;PMS5003;34101;53.430;-2.224;2022-08-01T07:22:40;7;7;
46681;PMS5003;34101;53.430;-2.224;2022-08-01T07:25:07;7;7;
46681;PMS5003;34101;53.430;-2.224;2022-08-01T07:27:37;7;7;
46681;PMS5003;34101;53.430;-2.224;2022-08-01T07:30:04;9;7;
46681;PMS5003;34101;53.430;-2.224;2022-08-01T07:32:32;8;8;
46681;PMS5003;34101;53.430;-2.224;2022-08-01T07:35:00;9;6;
46681;PMS5003;34101;53.430;-2.224;2022-08-01T07:37:27;6;6;
46681;PMS5003;34101;53.430;-2.224;2022-08-01T07:39:54;5;5;
46681;PMS5003;34101;53.430;-2.224;2022-08-01T07:42:22;7;7;
46681;PMS5003;34101;53.430;-2.224;2022-08-01T07:44:49;4;4;
46681;PMS5003;34101;53.430;-2.224;2022-08-01T07:47:23;8;6;
46681;PMS5003;34101;53.430;-2.224;2022-08-01T07:49:50;5;5;
46681;PMS5003;34101;53.430;-2.224;2022-08-01T07:52:18;6;6;
46681;PMS5003;34101;53.430;-2.224;2022-08-01T07:54:45;8;6;
46681;PMS5003;34101;53.430;-2.224;2022-08-01T07:57:12;7;7;
46681;PMS5003;34101;53.430;-2.224;2022-08-01T07:59:40;9;8;
46681;PMS5003;34101;53.430;-2.224;2022-08-01T08:02:07;7;7;
46681;PMS5003;34101;53.430;-2.224;2022-08-01T08:04:36;11;9;
46681;PMS5003;34101;53.430;-2.224;2022-08-01T08:07:03;9;8;
46681;PMS5003;34101;53.430;-2.224;2022-08-01T08:09:30;3;3;
46681;PMS5003;34101;53.430;-2.224;2022-08-01T08:11:58;4;4;
46681;PMS5003;34101;53.430;-2.224;2022-08-01T08:14:25;5;5;
46681;PMS5003;34101;53.430;-2.224;2022-08-01T08:16:53;7;6;
46681;PMS5003;34101;53.430;-2.224;2022-08-01T08:19:20;6;6;
46681;PMS5003;34101;53.430;-2.224;2022-08-01T08:21:47;6;6;
46681;PMS5003;34101;53.430;-2.224;2022-08-01T08:24:15;4;4;
46681;PMS5003;34101;53.430;-2.224;2022-08-01T08:26:42;7;5;
46681;PMS5003;34101;53.430;-2.224;2022-08-01T08:29:10;6;4;
46681;PMS5003;34101;53.430;-2.224;2022-08-01T08:31:37;4;4;
46681;PMS5003;34101;53.430;-2.224;2022-08-01T08:34:05;3;3;
46681;PMS5003;34101;53.430;-2.224;2022-08-01T08:36:32;6;4;
46681;PMS5003;34101;53.430;-2.224;2022-08-01T08:39:00;3;3;
46681;PMS5003;34101;53.430;-2.224;2022-08-01T08:41:28;6;4;
46681;PMS5003;34101;53.430;-2.224;2022-08-01T08:43:56;6;6;
46681;PMS5003;34101;53.430;-2.224;2022-08-01T08:46:24;5;4;
46681;PMS5003;34101;53.430;-2.224;2022-08-01T08:48:54;3;3;
46681;PMS5003;34101;53.430;-2.224;2022-08-01T08:51:23;4;4;
46681;PMS5003;34101;53.430;-2.224;2022-08-01T08:53:52;3;3;
46681;PMS5003;34101;53.430;-2.224;2022-08-01T08:56:21;4;2;
46681;PMS5003;34101;53.430;-2.224;2022-08-01T08:58:51;4;3;
46681;PMS5003;34101;53.430;-2.224;2022-08-01T09:01:19;3;3;
46681;PMS5003;34101;53.430;-2.224;2022-08-01T09:03:46;4;2;
46681;PMS5003;34101;53.430;-2.224;2022-08-01T09:06:13;2;2;
46681;PMS5003;34101;53.430;-2.224;2022-08-01T09:08:41;3;3;
46681;PMS5003;34101;53.430;-2.224;2022-08-01T09:11:09;2;2;
46681;PMS5003;34101;53.430;-2.224;2022-08-01T09:13:37;2;2;
46681;PMS5003;34101;53.430;-2.224;2022-08-01T09:16:04;3;2;
46681;PMS5003;34101;53.430;-2.224;2022-08-01T09:18:32;2;2;
46681;PMS5003;34101;53.430;-2.224;2022-08-01T09:21:07;2;2;
46681;PMS5003;34101;53.430;-2.224;2022-08-01T09:23:37;2;2;
46681;PMS5003;34101;53.430;-2.224;2022-08-01T09:26:06;4;3;
46681;PMS5003;34101;53.430;-2.224;2022-08-01T09:28:34;4;1;
46681;PMS5003;34101;53.430;-2.224;2022-08-01T09:31:05;3;3;
46681;PMS5003;34101;53.430;-2.224;2022-08-01T09:33:50;3;3;
46681;PMS5003;34101;53.430;-2.224;2022-08-01T09:36:18;3;3;
46681;PMS5003;34101;53.430;-2.224;2022-08-01T09:38:47;4;2;
46681;PMS5003;34101;53.430;-2.224;2022-08-01T09:41:14;1;1;
46681;PMS5003;34101;53.430;-2.224;2022-08-01T09:43:47;3;3;
46681;PMS5003;34101;53.430;-2.224;2022-08-01T09:46:16;3;3;
46681;PMS5003;34101;53.430;-2.224;2022-08-01T09:49:02;1;1;
46681;PMS5003;34101;53.430;-2.224;2022-08-01T09:51:32;3;3;
46681;PMS5003;34101;53.430;-2.224;2022-08-01T09:54:03;6;3;
46681;PMS5003;34101;53.430;-2.224;2022-08-01T09:56:39;3;1;
46681;PMS5003;34101;53.430;-2.224;2022-08-01T09:59:07;3;3;
46681;PMS5003;34101;53.430;-2.224;2022-08-01T10:01:44;2;2;
46681;PMS5003;34101;53.430;-2.224;2022-08-01T10:04:13;3;3;
46681;PMS5003;34101;53.430;-2.224;2022-08-01T10:06:43;0;0;
46681;PMS5003;34101;53.430;-2.224;2022-08-01T10:09:12;3;2;
46681;PMS5003;34101;53.430;-2.224;2022-08-01T10:11:41;3;1;
46681;PMS5003;34101;53.430;-2.224;2022-08-01T10:14:09;4;2;
46681;PMS5003;34101;53.430;-2.224;2022-08-01T10:16:37;2;2;
46681;PMS5003;34101;53.430;-2.224;2022-08-01T10:19:05;2;2;
46681;PMS5003;34101;53.430;-2.224;2022-08-01T10:21:33;3;3;
46681;PMS5003;34101;53.430;-2.224;2022-08-01T10:24:03;2;1;
46681;PMS5003;34101;53.430;-2.224;2022-08-01T10:26:34;4;4;
46681;PMS5003;34101;53.430;-2.224;2022-08-01T10:29:04;2;2;
46681;PMS5003;34101;53.430;-2.224;2022-08-01T10:31:32;3;3;
46681;PMS5003;34101;53.430;-2.224;2022-08-01T10:34:00;1;1;
46681;PMS5003;34101;53.430;-2.224;2022-08-01T10:36:27;2;2;
46681;PMS5003;34101;53.430;-2.224;2022-08-01T10:38:56;2;2;
46681;PMS5003;34101;53.430;-2.224;2022-08-01T10:41:24;2;2;
46681;PMS5003;34101;53.430;-2.224;2022-08-01T10:43:52;4;2;
46681;PMS5003;34101;53.430;-2.224;2022-08-01T10:46:20;2;2;
46681;PMS5003;34101;53.430;-2.224;2022-08-01T10:48:49;1;1;
46681;PMS5003;34101;53.430;-2.224;2022-08-01T10:51:22;2;2;
46681;PMS5003;34101;53.430;-2.224;2022-08-01T10:53:51;3;3;
46681;PMS5003;34101;53.430;-2.224;2022-08-01T10:56:19;4;4;
46681;PMS5003;34101;53.430;-2.224;2022-08-01T10:58:48;2;2;
46681;PMS5003;34101;53.430;-2.224;2022-08-01T11:01:27;1;1;
46681;PMS5003;34101;53.430;-2.224;2022-08-01T11:03:58;1;1;
46681;PMS5003;34101;53.430;-2.224;2022-08-01T11:07:03;3;3;
46681;PMS5003;34101;53.430;-2.224;2022-08-01T11:09:40;2;2;
46681;PMS5003;34101;53.430;-2.224;2022-08-01T11:12:10;3;3;
46681;PMS5003;34101;53.430;-2.224;2022-08-01T11:15:42;3;3;
46681;PMS5003;34101;53.430;-2.224;2022-08-01T11:18:29;2;1;
46681;PMS5003;34101;53.430;-2.224;2022-08-01T11:20:57;3;3;
46681;PMS5003;34101;53.430;-2.224;2022-08-01T11:23:26;2;2;
46681;PMS5003;34101;53.430;-2.224;2022-08-01T11:26:11;2;2;
46681;PMS5003;34101;53.430;-2.224;2022-08-01T11:28:40;2;2;
46681;PMS5003;34101;53.430;-2.224;2022-08-01T11:31:26;2;2;
46681;PMS5003;34101;53.430;-2.224;2022-08-01T11:33:55;5;2;
46681;PMS5003;34101;53.430;-2.224;2022-08-01T11:36:22;2;2;
46681;PMS5003;34101;53.430;-2.224;2022-08-01T11:41:39;2;2;
46681;PMS5003;34101;53.430;-2.224;2022-08-01T11:44:08;3;3;
46681;PMS5003;34101;53.430;-2.224;2022-08-01T11:46:53;3;3;
46681;PMS5003;34101;53.430;-2.224;2022-08-01T11:49:27;3;3;
46681;PMS5003;34101;53.430;-2.224;2022-08-01T11:51:57;3;3;
46681;PMS5003;34101;53.430;-2.224;2022-08-01T11:54:26;2;2;
46681;PMS5003;34101;53.430;-2.224;2022-08-01T11:56:56;6;3;
46681;PMS5003;34101;53.430;-2.224;2022-08-01T11:59:24;4;4;
46681;PMS5003;34101;53.430;-2.224;2022-08-01T12:01:52;4;4;
46681;PMS5003;34101;53.430;-2.224;2022-08-01T12:04:19;6;6;
46681;PMS5003;34101;53.430;-2.224;2022-08-01T12:06:47;4;4;
46681;PMS5003;34101;53.430;-2.224;2022-08-01T12:09:15;5;4;
46681;PMS5003;34101;53.430;-2.224;2022-08-01T12:11:44;2;2;
46681;PMS5003;34101;53.430;-2.224;2022-08-01T12:14:15;2;2;
46681;PMS5003;34101;53.430;-2.224;2022-08-01T12:16:48;2;2;
46681;PMS5003;34101;53.430;-2.224;2022-08-01T12:19:19;2;2;
46681;PMS5003;34101;53.430;-2.224;2022-08-01T12:22:21;4;4;
46681;PMS5003;34101;53.430;-2.224;2022-08-01T12:24:49;3;3;
46681;PMS5003;34101;53.430;-2.224;2022-08-01T12:27:23;2;2;
46681;PMS5003;34101;53.430;-2.224;2022-08-01T12:29:52;3;3;
46681;PMS5003;34101;53.430;-2.224;2022-08-01T12:32:22;4;4;
46681;PMS5003;34101;53.430;-2.224;2022-08-01T12:34:51;33;22;
46681;PMS5003;34101;53.430;-2.224;2022-08-01T12:37:19;3;3;
46681;PMS5003;34101;53.430;-2.224;2022-08-01T12:39:46;4;4;
46681;PMS5003;34101;53.430;-2.224;2022-08-01T12:42:14;3;3;
46681;PMS5003;34101;53.430;-2.224;2022-08-01T12:44:42;3;3;
46681;PMS5003;34101;53.430;-2.224;2022-08-01T12:47:11;4;4;
46681;PMS5003;34101;53.430;-2.224;2022-08-01T12:49:41;0;0;
46681;PMS5003;34101;53.430;-2.224;2022-08-01T12:52:10;1;1;
46681;PMS5003;34101;53.430;-2.224;2022-08-01T12:55:11;3;3;
46681;PMS5003;34101;53.430;-2.224;2022-08-01T12:57:41;3;2;
46681;PMS5003;34101;53.430;-2.224;2022-08-01T13:00:11;3;3;
46681;PMS5003;34101;53.430;-2.224;2022-08-01T13:02:41;2;2;
46681;PMS5003;34101;53.430;-2.224;2022-08-01T13:05:08;2;2;
46681;PMS5003;34101;53.430;-2.224;2022-08-01T13:07:37;3;3;
46681;PMS5003;34101;53.430;-2.224;2022-08-01T13:10:07;4;4;
46681;PMS5003;34101;53.430;-2.224;2022-08-01T13:12:35;3;3;
46681;PMS5003;34101;53.430;-2.224;2022-08-01T13:15:19;3;3;
46681;PMS5003;34101;53.430;-2.224;2022-08-01T13:17:49;5;3;
46681;PMS5003;34101;53.430;-2.224;2022-08-01T13:20:22;3;3;
46681;PMS5003;34101;53.430;-2.224;2022-08-01T13:22:51;3;3;
46681;PMS5003;34101;53.430;-2.224;2022-08-01T13:25:19;2;2;
46681;PMS5003;34101;53.430;-2.224;2022-08-01T13:27:46;3;2;
46681;PMS5003;34101;53.430;-2.224;2022-08-01T13:30:14;3;3;
46681;PMS5003;34101;53.430;-2.224;2022-08-01T13:32:43;4;4;
46681;PMS5003;34101;53.430;-2.224;2022-08-01T13:35:23;5;3;
46681;PMS5003;34101;53.430;-2.224;2022-08-01T13:37:51;4;3;
46681;PMS5003;34101;53.430;-2.224;2022-08-01T13:40:23;3;3;
46681;PMS5003;34101;53.430;-2.224;2022-08-01T13:42:51;4;4;
46681;PMS5003;34101;53.430;-2.224;2022-08-01T13:45:18;3;3;
46681;PMS5003;34101;53.430;-2.224;2022-08-01T13:47:45;3;3;
46681;PMS5003;34101;53.430;-2.224;2022-08-01T13:50:13;3;3;
46681;PMS5003;34101;53.430;-2.224;2022-08-01T13:52:41;3;2;
46681;PMS5003;34101;53.430;-2.224;2022-08-01T13:55:08;3;3;
46681;PMS5003;34101;53.430;-2.224;2022-08-01T13:57:35;3;3;
46681;PMS5003;34101;53.430;-2.224;2022-08-01T14:00:04;2;2;
46681;PMS5003;34101;53.430;-2.224;2022-08-01T14:02:33;3;3;
46681;PMS5003;34101;53.430;-2.224;2022-08-01T14:05:00;5;4;
46681;PMS5003;34101;53.430;-2.224;2022-08-01T14:07:28;3;3;
46681;PMS5003;34101;53.430;-2.224;2022-08-01T14:09:55;3;3;
46681;PMS5003;34101;53.430;-2.224;2022-08-01T14:12:23;6;4;
46681;PMS5003;34101;53.430;-2.224;2022-08-01T14:14:50;2;2;
46681;PMS5003;34101;53.430;-2.224;2022-08-01T14:17:18;2;2;
46681;PMS5003;34101;53.430;-2.224;2022-08-01T14:19:45;2;2;
46681;PMS5003;34101;53.430;-2.224;2022-08-01T14:22:12;3;3;
46681;PMS5003;34101;53.430;-2.224;2022-08-01T14:24:40;5;3;
46681;PMS5003;34101;53.430;-2.224;2022-08-01T14:27:07;6;5;
46681;PMS5003;34101;53.430;-2.224;2022-08-01T14:29:35;6;6;
46681;PMS5003;34101;53.430;-2.224;2022-08-01T14:32:02;3;3;
46681;PMS5003;34101;53.430;-2.224;2022-08-01T14:34:29;4;4;
46681;PMS5003;34101;53.430;-2.224;2022-08-01T14:36:57;5;5;
46681;PMS5003;34101;53.430;-2.224;2022-08-01T14:39:24;3;1;
46681;PMS5003;34101;53.430;-2.224;2022-08-01T14:41:52;3;3;
46681;PMS5003;34101;53.430;-2.224;2022-08-01T14:44:19;4;3;
46681;PMS5003;34101;53.430;-2.224;2022-08-01T14:46:47;2;2;
46681;PMS5003;34101;53.430;-2.224;2022-08-01T14:49:14;3;3;
46681;PMS5003;34101;53.430;-2.224;2022-08-01T14:51:42;3;2;
46681;PMS5003;34101;53.430;-2.224;2022-08-01T14:54:09;2;2;
46681;PMS5003;34101;53.430;-2.224;2022-08-01T14:56:36;2;2;
46681;PMS5003;34101;53.430;-2.224;2022-08-01T14:59:04;2;2;
46681;PMS5003;34101;53.430;-2.224;2022-08-01T15:01:31;2;2;
46681;PMS5003;34101;53.430;-2.224;2022-08-01T15:03:59;2;2;
46681;PMS5003;34101;53.430;-2.224;2022-08-01T15:06:26;3;3;
46681;PMS5003;34101;53.430;-2.224;2022-08-01T15:08:54;1;1;
46681;PMS5003;34101;53.430;-2.224;2022-08-01T15:11:21;3;3;
46681;PMS5003;34101;53.430;-2.224;2022-08-01T15:13:49;3;3;
46681;PMS5003;34101;53.430;-2.224;2022-08-01T15:16:16;3;2;
46681;PMS5003;34101;53.430;-2.224;2022-08-01T15:18:44;3;2;
46681;PMS5003;34101;53.430;-2.224;2022-08-01T15:21:11;2;2;
46681;PMS5003;34101;53.430;-2.224;2022-08-01T15:23:38;2;2;
46681;PMS5003;34101;53.430;-2.224;2022-08-01T15:26:06;2;2;
46681;PMS5003;34101;53.430;-2.224;2022-08-01T15:28:33;2;2;
46681;PMS5003;34101;53.430;-2.224;2022-08-01T15:31:01;3;3;
46681;PMS5003;34101;53.430;-2.224;2022-08-01T15:33:28;2;2;
46681;PMS5003;34101;53.430;-2.224;2022-08-01T15:35:56;2;2;
46681;PMS5003;34101;53.430;-2.224;2022-08-01T15:38:23;1;1;
46681;PMS5003;34101;53.430;-2.224;2022-08-01T15:40:51;4;3;
46681;PMS5003;34101;53.430;-2.224;2022-08-01T15:43:18;2;2;
46681;PMS5003;34101;53.430;-2.224;2022-08-01T15:45:46;3;3;
46681;PMS5003;34101;53.430;-2.224;2022-08-01T15:48:13;2;2;
46681;PMS5003;34101;53.430;-2.224;2022-08-01T15:50:41;1;1;
46681;PMS5003;34101;53.430;-2.224;2022-08-01T15:53:09;3;3;
46681;PMS5003;34101;53.430;-2.224;2022-08-01T15:55:37;4;4;
46681;PMS5003;34101;53.430;-2.224;2022-08-01T15:58:05;2;1;
46681;PMS5003;34101;53.430;-2.224;2022-08-01T16:00:33;2;2;
46681;PMS5003;34101;53.430;-2.224;2022-08-01T16:03:00;2;2;
46681;PMS5003;34101;53.430;-2.224;2022-08-01T16:05:28;2;2;
46681;PMS5003;34101;53.430;-2.224;2022-08-01T16:07:55;3;3;
46681;PMS5003;34101;53.430;-2.224;2022-08-01T16:10:23;3;3;
46681;PMS5003;34101;53.430;-2.224;2022-08-01T16:12:50;4;3;
46681;PMS5003;34101;53.430;-2.224;2022-08-01T16:15:18;1;1;
46681;PMS5003;34101;53.430;-2.224;2022-08-01T16:17:45;2;2;
46681;PMS5003;34101;53.430;-2.224;2022-08-01T16:20:13;2;2;
46681;PMS5003;34101;53.430;-2.224;2022-08-01T16:22:40;3;3;
46681;PMS5003;34101;53.430;-2.224;2022-08-01T16:25:08;2;2;
46681;PMS5003;34101;53.430;-2.224;2022-08-01T16:27:35;2;2;
46681;PMS5003;34101;53.430;-2.224;2022-08-01T16:30:03;5;3;
46681;PMS5003;34101;53.430;-2.224;2022-08-01T16:32:31;2;2;
46681;PMS5003;34101;53.430;-2.224;2022-08-01T16:34:58;2;2;
46681;PMS5003;34101;53.430;-2.224;2022-08-01T16:37:26;3;1;
46681;PMS5003;34101;53.430;-2.224;2022-08-01T16:39:53;3;2;
46681;PMS5003;34101;53.430;-2.224;2022-08-01T16:42:26;1;1;
46681;PMS5003;34101;53.430;-2.224;2022-08-01T16:44:52;4;4;
46681;PMS5003;34101;53.430;-2.224;2022-08-01T16:47:20;1;1;
46681;PMS5003;34101;53.430;-2.224;2022-08-01T16:49:47;3;2;
46681;PMS5003;34101;53.430;-2.224;2022-08-01T16:52:15;2;2;